sensor_id;sensor_type;location;lat;lon;timestamp;pressure;altitude;pressure_sealevel;temperature;humidity
80401;BME280;69727;53.132;8.230;2024-03-02T00:02:13;100308.19;;;7.22;76.68
80401;BME280;69727;53.132;8.230;2024-03-02T00:04:39;100307.13;;;7.17;76.78
80401;BME280;69727;53.132;8.230;2024-03-02T00:07:06;100305.94;;;7.04;77.40
80401;BME280;69727;53.132;8.230;2024-03-02T00:09:32;100305.56;;;7.07;77.44
80401;BME280;69727;53.132;8.230;2024-03-02T00:11:58;100296.00;;;6.98;77.36
80401;BME280;69727;53.132;8.230;2024-03-02T00:14:24;100290.09;;;7.03;77.63
80401;BME280;69727;53.132;8.230;2024-03-02T00:16:51;100290.41;;;6.93;77.77
80401;BME280;69727;53.132;8.230;2024-03-02T00:19:17;100290.84;;;6.82;77.83
80401;BME280;69727;53.132;8.230;2024-03-02T00:21:42;100286.53;;;6.81;78.29
80401;BME280;69727;53.132;8.230;2024-03-02T00:24:21;100295.75;;;6.79;77.85
80401;BME280;69727;53.132;8.230;2024-03-02T00:26:47;100288.56;;;6.79;78.25
80401;BME280;69727;53.132;8.230;2024-03-02T00:29:15;100294.25;;;6.76;77.87
80401;BME280;69727;53.132;8.230;2024-03-02T00:31:41;100296.09;;;6.76;78.26
80401;BME280;69727;53.132;8.230;2024-03-02T00:34:07;100288.56;;;6.79;77.77
80401;BME280;69727;53.132;8.230;2024-03-02T00:36:33;100283.69;;;6.83;77.85
80401;BME280;69727;53.132;8.230;2024-03-02T00:38:58;100277.59;;;6.74;78.22
80401;BME280;69727;53.132;8.230;2024-03-02T00:41:28;100274.00;;;6.82;77.50
80401;BME280;69727;53.132;8.230;2024-03-02T00:43:58;100279.72;;;6.79;77.59
80401;BME280;69727;53.132;8.230;2024-03-02T00:46:27;100278.59;;;6.88;76.82
80401;BME280;69727;53.132;8.230;2024-03-02T00:48:57;100274.38;;;6.93;76.57
80401;BME280;69727;53.132;8.230;2024-03-02T00:51:24;100280.09;;;6.90;76.78
80401;BME280;69727;53.132;8.230;2024-03-02T00:53:54;100287.66;;;6.72;77.41
80401;BME280;69727;53.132;8.230;2024-03-02T00:56:24;100277.91;;;6.64;77.89
80401;BME280;69727;53.132;8.230;2024-03-02T00:58:50;100270.41;;;6.60;77.79
80401;BME280;69727;53.132;8.230;2024-03-02T01:01:15;100272.00;;;6.69;77.67
80401;BME280;69727;53.132;8.230;2024-03-02T01:03:42;100265.19;;;6.66;77.68
80401;BME280;69727;53.132;8.230;2024-03-02T01:06:07;100261.81;;;6.73;77.43
80401;BME280;69727;53.132;8.230;2024-03-02T01:08:37;100261.97;;;6.71;77.31
80401;BME280;69727;53.132;8.230;2024-03-02T01:11:03;100256.91;;;6.76;77.24
80401;BME280;69727;53.132;8.230;2024-03-02T01:13:29;100266.94;;;6.59;77.63
80401;BME280;69727;53.132;8.230;2024-03-02T01:15:55;100273.72;;;6.47;77.92
80401;BME280;69727;53.132;8.230;2024-03-02T01:18:20;100274.75;;;6.46;78.11
80401;BME280;69727;53.132;8.230;2024-03-02T01:20:47;100268.22;;;6.49;78.28
80401;BME280;69727;53.132;8.230;2024-03-02T01:23:12;100263.72;;;6.49;78.07
80401;BME280;69727;53.132;8.230;2024-03-02T01:25:38;100257.72;;;6.47;78.40
80401;BME280;69727;53.132;8.230;2024-03-02T01:28:04;100259.56;;;6.47;78.24
80401;BME280;69727;53.132;8.230;2024-03-02T01:30:29;100258.56;;;6.48;77.80
80401;BME280;69727;53.132;8.230;2024-03-02T01:32:55;100263.34;;;6.38;78.36
80401;BME280;69727;53.132;8.230;2024-03-02T01:35:20;100259.28;;;6.42;78.47
80401;BME280;69727;53.132;8.230;2024-03-02T01:37:46;100249.91;;;6.46;78.47
80401;BME280;69727;53.132;8.230;2024-03-02T01:40:11;100249.06;;;6.45;78.29
80401;BME280;69727;53.132;8.230;2024-03-02T01:42:38;100247.44;;;6.44;77.88
80401;BME280;69727;53.132;8.230;2024-03-02T01:45:07;100242.47;;;6.41;78.03
80401;BME280;69727;53.132;8.230;2024-03-02T01:47:33;100240.97;;;6.39;78.45
80401;BME280;69727;53.132;8.230;2024-03-02T01:49:59;100236.03;;;6.36;77.97
80401;BME280;69727;53.132;8.230;2024-03-02T01:52:25;100234.47;;;6.41;78.16
80401;BME280;69727;53.132;8.230;2024-03-02T01:54:50;100241.63;;;6.41;77.85
80401;BME280;69727;53.132;8.230;2024-03-02T01:57:16;100240.63;;;6.42;78.00
80401;BME280;69727;53.132;8.230;2024-03-02T01:59:41;100236.69;;;6.38;78.21
80401;BME280;69727;53.132;8.230;2024-03-02T02:02:07;100237.88;;;6.35;78.41
80401;BME280;69727;53.132;8.230;2024-03-02T02:04:33;100233.16;;;6.22;78.32
80401;BME280;69727;53.132;8.230;2024-03-02T02:06:59;100233.53;;;6.19;78.49
80401;BME280;69727;53.132;8.230;2024-03-02T02:09:25;100231.34;;;6.23;78.36
80401;BME280;69727;53.132;8.230;2024-03-02T02:11:51;100236.56;;;6.16;78.56
80401;BME280;69727;53.132;8.230;2024-03-02T02:14:19;100219.53;;;6.17;78.49
80401;BME280;69727;53.132;8.230;2024-03-02T02:16:44;100219.38;;;6.19;78.38
80401;BME280;69727;53.132;8.230;2024-03-02T02:19:10;100223.78;;;6.26;78.09
80401;BME280;69727;53.132;8.230;2024-03-02T02:21:35;100216.06;;;6.31;78.05
80401;BME280;69727;53.132;8.230;2024-03-02T02:24:01;100200.63;;;6.42;77.19
80401;BME280;69727;53.132;8.230;2024-03-02T02:26:29;100198.97;;;6.41;77.41
80401;BME280;69727;53.132;8.230;2024-03-02T02:28:57;100193.19;;;6.37;77.27
80401;BME280;69727;53.132;8.230;2024-03-02T02:31:23;100188.94;;;6.28;77.77
80401;BME280;69727;53.132;8.230;2024-03-02T02:33:48;100194.09;;;6.29;77.40
80401;BME280;69727;53.132;8.230;2024-03-02T02:36:13;100181.31;;;6.25;77.82
80401;BME280;69727;53.132;8.230;2024-03-02T02:38:42;100197.88;;;6.20;77.70
80401;BME280;69727;53.132;8.230;2024-03-02T02:41:09;100198.50;;;6.22;77.62
80401;BME280;69727;53.132;8.230;2024-03-02T02:43:34;100195.75;;;6.16;78.26
80401;BME280;69727;53.132;8.230;2024-03-02T02:46:00;100197.88;;;6.20;77.76
80401;BME280;69727;53.132;8.230;2024-03-02T02:48:25;100191.34;;;6.23;77.63
80401;BME280;69727;53.132;8.230;2024-03-02T02:50:50;100172.59;;;6.16;77.96
80401;BME280;69727;53.132;8.230;2024-03-02T02:53:16;100182.44;;;6.16;77.72
80401;BME280;69727;53.132;8.230;2024-03-02T02:55:42;100169.81;;;6.10;78.08
80401;BME280;69727;53.132;8.230;2024-03-02T02:58:11;100178.00;;;6.08;77.79
80401;BME280;69727;53.132;8.230;2024-03-02T03:00:36;100182.13;;;6.11;78.14
80401;BME280;69727;53.132;8.230;2024-03-02T03:03:02;100176.34;;;6.07;78.24
80401;BME280;69727;53.132;8.230;2024-03-02T03:05:28;100173.22;;;6.18;77.32
80401;BME280;69727;53.132;8.230;2024-03-02T03:07:53;100175.97;;;6.10;77.99
80401;BME280;69727;53.132;8.230;2024-03-02T03:10:19;100165.88;;;6.06;78.06
80401;BME280;69727;53.132;8.230;2024-03-02T03:12:47;100159.97;;;6.10;78.09
80401;BME280;69727;53.132;8.230;2024-03-02T03:15:12;100164.19;;;6.05;78.02
80401;BME280;69727;53.132;8.230;2024-03-02T03:17:38;100148.38;;;6.03;78.36
80401;BME280;69727;53.132;8.230;2024-03-02T03:20:04;100146.84;;;6.09;77.90
80401;BME280;69727;53.132;8.230;2024-03-02T03:22:30;100146.03;;;6.08;77.76
80401;BME280;69727;53.132;8.230;2024-03-02T03:25:00;100143.06;;;6.03;78.38
80401;BME280;69727;53.132;8.230;2024-03-02T03:27:25;100142.44;;;6.01;78.63
80401;BME280;69727;53.132;8.230;2024-03-02T03:29:51;100142.34;;;5.95;79.11
80401;BME280;69727;53.132;8.230;2024-03-02T03:32:17;100137.00;;;5.95;79.18
80401;BME280;69727;53.132;8.230;2024-03-02T03:34:43;100137.28;;;6.00;78.89
80401;BME280;69727;53.132;8.230;2024-03-02T03:37:08;100141.06;;;6.05;78.56
80401;BME280;69727;53.132;8.230;2024-03-02T03:39:35;100159.06;;;5.88;79.07
80401;BME280;69727;53.132;8.230;2024-03-02T03:42:03;100163.88;;;5.85;79.70
80401;BME280;69727;53.132;8.230;2024-03-02T03:44:29;100159.22;;;5.87;79.81
80401;BME280;69727;53.132;8.230;2024-03-02T03:46:54;100161.16;;;5.93;78.90
80401;BME280;69727;53.132;8.230;2024-03-02T03:49:20;100160.44;;;5.99;78.72
80401;BME280;69727;53.132;8.230;2024-03-02T03:51:45;100161.44;;;5.98;78.96
80401;BME280;69727;53.132;8.230;2024-03-02T03:54:11;100161.81;;;5.95;79.27
80401;BME280;69727;53.132;8.230;2024-03-02T03:56:37;100160.78;;;5.96;79.10
80401;BME280;69727;53.132;8.230;2024-03-02T03:59:02;100172.75;;;6.00;79.25
80401;BME280;69727;53.132;8.230;2024-03-02T04:01:28;100172.47;;;6.10;78.82
80401;BME280;69727;53.132;8.230;2024-03-02T04:03:53;100168.19;;;6.09;78.61
80401;BME280;69727;53.132;8.230;2024-03-02T04:06:19;100170.19;;;6.07;78.51
80401;BME280;69727;53.132;8.230;2024-03-02T04:08:44;100169.00;;;6.09;78.77
80401;BME280;69727;53.132;8.230;2024-03-02T04:11:10;100175.50;;;6.07;78.81
80401;BME280;69727;53.132;8.230;2024-03-02T04:13:35;100171.28;;;5.98;79.20
80401;BME280;69727;53.132;8.230;2024-03-02T04:16:01;100165.13;;;5.97;79.03
80401;BME280;69727;53.132;8.230;2024-03-02T04:18:26;100178.44;;;5.97;78.97
80401;BME280;69727;53.132;8.230;2024-03-02T04:20:51;100178.44;;;5.97;79.13
80401;BME280;69727;53.132;8.230;2024-03-02T04:23:17;100179.56;;;6.03;78.97
80401;BME280;69727;53.132;8.230;2024-03-02T04:25:42;100186.97;;;5.93;79.30
80401;BME280;69727;53.132;8.230;2024-03-02T04:28:08;100179.22;;;5.83;79.60
80401;BME280;69727;53.132;8.230;2024-03-02T04:30:33;100180.88;;;5.84;79.83
80401;BME280;69727;53.132;8.230;2024-03-02T04:32:59;100180.88;;;5.84;80.21
80401;BME280;69727;53.132;8.230;2024-03-02T04:35:24;100192.88;;;5.88;79.68
80401;BME280;69727;53.132;8.230;2024-03-02T04:37:50;100186.72;;;5.87;79.65
80401;BME280;69727;53.132;8.230;2024-03-02T04:40:16;100200.41;;;5.76;80.19
80401;BME280;69727;53.132;8.230;2024-03-02T04:42:41;100196.63;;;5.71;80.39
80401;BME280;69727;53.132;8.230;2024-03-02T04:45:07;100190.88;;;5.82;79.77
80401;BME280;69727;53.132;8.230;2024-03-02T04:47:32;100192.34;;;5.84;79.91
80401;BME280;69727;53.132;8.230;2024-03-02T04:49:58;100203.91;;;5.77;80.52
80401;BME280;69727;53.132;8.230;2024-03-02T04:52:23;100187.84;;;5.85;79.63
80401;BME280;69727;53.132;8.230;2024-03-02T04:54:49;100195.56;;;5.80;80.22
80401;BME280;69727;53.132;8.230;2024-03-02T04:57:32;100189.50;;;5.86;79.65
80401;BME280;69727;53.132;8.230;2024-03-02T04:59:58;100198.69;;;5.83;80.02
80401;BME280;69727;53.132;8.230;2024-03-02T05:02:23;100198.75;;;5.75;80.23
80401;BME280;69727;53.132;8.230;2024-03-02T05:04:49;100206.19;;;5.65;80.13
80401;BME280;69727;53.132;8.230;2024-03-02T05:07:14;100201.03;;;5.64;80.46
80401;BME280;69727;53.132;8.230;2024-03-02T05:09:40;100200.78;;;5.73;80.03
80401;BME280;69727;53.132;8.230;2024-03-02T05:12:05;100193.53;;;5.67;80.50
80401;BME280;69727;53.132;8.230;2024-03-02T05:14:36;100199.31;;;5.71;80.34
80401;BME280;69727;53.132;8.230;2024-03-02T05:17:02;100206.41;;;5.78;79.85
80401;BME280;69727;53.132;8.230;2024-03-02T05:19:28;100206.56;;;5.77;79.89
80401;BME280;69727;53.132;8.230;2024-03-02T05:21:53;100206.84;;;5.67;80.19
80401;BME280;69727;53.132;8.230;2024-03-02T05:24:18;100206.41;;;5.56;80.70
80401;BME280;69727;53.132;8.230;2024-03-02T05:26:44;100205.41;;;5.57;81.27
80401;BME280;69727;53.132;8.230;2024-03-02T05:29:09;100209.84;;;5.41;81.02
80401;BME280;69727;53.132;8.230;2024-03-02T05:31:35;100207.56;;;5.38;81.53
80401;BME280;69727;53.132;8.230;2024-03-02T05:34:00;100207.50;;;5.46;81.16
80401;BME280;69727;53.132;8.230;2024-03-02T05:36:25;100210.78;;;5.48;81.34
80401;BME280;69727;53.132;8.230;2024-03-02T05:38:51;100218.41;;;5.29;81.91
80401;BME280;69727;53.132;8.230;2024-03-02T05:41:16;100220.78;;;5.24;82.34
80401;BME280;69727;53.132;8.230;2024-03-02T05:43:42;100211.72;;;5.33;82.10
80401;BME280;69727;53.132;8.230;2024-03-02T05:46:07;100215.81;;;5.43;81.95
80401;BME280;69727;53.132;8.230;2024-03-02T05:48:32;100214.94;;;5.51;81.38
80401;BME280;69727;53.132;8.230;2024-03-02T05:50:58;100223.16;;;5.41;81.77
80401;BME280;69727;53.132;8.230;2024-03-02T05:53:24;100214.44;;;5.47;81.53
80401;BME280;69727;53.132;8.230;2024-03-02T05:55:50;100209.44;;;5.52;81.37
80401;BME280;69727;53.132;8.230;2024-03-02T05:58:20;100217.78;;;5.49;81.31
80401;BME280;69727;53.132;8.230;2024-03-02T06:00:58;100218.16;;;5.46;81.49
80401;BME280;69727;53.132;8.230;2024-03-02T06:03:23;100223.16;;;5.41;82.02
80401;BME280;69727;53.132;8.230;2024-03-02T06:05:48;100212.38;;;5.35;82.12
80401;BME280;69727;53.132;8.230;2024-03-02T06:08:14;100219.97;;;5.46;81.60
80401;BME280;69727;53.132;8.230;2024-03-02T06:10:40;100216.28;;;5.47;81.89
80401;BME280;69727;53.132;8.230;2024-03-02T06:13:05;100217.72;;;5.58;81.62
80401;BME280;69727;53.132;8.230;2024-03-02T06:15:31;100213.34;;;5.65;81.04
80401;BME280;69727;53.132;8.230;2024-03-02T06:17:56;100225.66;;;5.66;81.14
80401;BME280;69727;53.132;8.230;2024-03-02T06:20:21;100231.75;;;5.51;81.65
80401;BME280;69727;53.132;8.230;2024-03-02T06:22:47;100230.81;;;5.44;81.68
80401;BME280;69727;53.132;8.230;2024-03-02T06:25:12;100232.91;;;5.49;82.05
80401;BME280;69727;53.132;8.230;2024-03-02T06:27:38;100239.63;;;5.45;82.18
80401;BME280;69727;53.132;8.230;2024-03-02T06:30:04;100237.97;;;5.44;82.28
80401;BME280;69727;53.132;8.230;2024-03-02T06:32:29;100237.06;;;5.51;82.54
80401;BME280;69727;53.132;8.230;2024-03-02T06:34:55;100248.19;;;5.55;83.26
80401;BME280;69727;53.132;8.230;2024-03-02T06:37:20;100251.34;;;5.59;81.82
80401;BME280;69727;53.132;8.230;2024-03-02T06:39:46;100255.66;;;5.60;82.34
80401;BME280;69727;53.132;8.230;2024-03-02T06:42:11;100262.03;;;5.50;82.19
80401;BME280;69727;53.132;8.230;2024-03-02T06:44:37;100258.72;;;5.48;82.09
80401;BME280;69727;53.132;8.230;2024-03-02T06:47:02;100261.91;;;5.44;82.72
80401;BME280;69727;53.132;8.230;2024-03-02T06:49:28;100265.59;;;5.43;82.87
80401;BME280;69727;53.132;8.230;2024-03-02T06:51:53;100267.69;;;5.47;82.77
80401;BME280;69727;53.132;8.230;2024-03-02T06:54:18;100268.31;;;5.58;82.48
80401;BME280;69727;53.132;8.230;2024-03-02T06:56:44;100272.16;;;5.55;82.24
80401;BME280;69727;53.132;8.230;2024-03-02T06:59:09;100275.97;;;5.61;82.07
80401;BME280;69727;53.132;8.230;2024-03-02T07:01:34;100272.34;;;5.53;82.45
80401;BME280;69727;53.132;8.230;2024-03-02T07:04:00;100280.13;;;5.55;82.66
80401;BME280;69727;53.132;8.230;2024-03-02T07:06:25;100280.81;;;5.57;82.34
80401;BME280;69727;53.132;8.230;2024-03-02T07:08:51;100283.75;;;5.62;82.29
80401;BME280;69727;53.132;8.230;2024-03-02T07:11:16;100284.59;;;5.63;82.44
80401;BME280;69727;53.132;8.230;2024-03-02T07:13:42;100285.41;;;5.63;82.89
80401;BME280;69727;53.132;8.230;2024-03-02T07:16:07;100270.81;;;5.59;82.55
80401;BME280;69727;53.132;8.230;2024-03-02T07:18:36;100278.53;;;5.69;82.96
80401;BME280;69727;53.132;8.230;2024-03-02T07:21:09;100275.88;;;5.69;82.70
80401;BME280;69727;53.132;8.230;2024-03-02T07:23:35;100296.84;;;5.72;82.80
80401;BME280;69727;53.132;8.230;2024-03-02T07:26:01;100279.44;;;5.84;82.42
80401;BME280;69727;53.132;8.230;2024-03-02T07:28:28;100283.06;;;5.91;82.27
80401;BME280;69727;53.132;8.230;2024-03-02T07:31:03;100276.75;;;5.92;82.11
80401;BME280;69727;53.132;8.230;2024-03-02T07:33:30;100281.19;;;6.00;82.24
80401;BME280;69727;53.132;8.230;2024-03-02T07:35:56;100282.34;;;5.97;82.03
80401;BME280;69727;53.132;8.230;2024-03-02T07:38:23;100283.13;;;6.06;81.83
80401;BME280;69727;53.132;8.230;2024-03-02T07:40:49;100277.63;;;6.07;81.86
80401;BME280;69727;53.132;8.230;2024-03-02T07:43:18;100278.66;;;6.21;81.45
80401;BME280;69727;53.132;8.230;2024-03-02T07:45:47;100280.31;;;6.22;81.28
80401;BME280;69727;53.132;8.230;2024-03-02T07:48:13;100293.28;;;6.25;81.69
80401;BME280;69727;53.132;8.230;2024-03-02T07:50:39;100301.81;;;6.20;81.27
80401;BME280;69727;53.132;8.230;2024-03-02T07:53:05;100310.00;;;6.19;81.44
80401;BME280;69727;53.132;8.230;2024-03-02T07:55:31;100309.28;;;6.25;81.37
80401;BME280;69727;53.132;8.230;2024-03-02T07:57:57;100314.81;;;6.23;81.65
80401;BME280;69727;53.132;8.230;2024-03-02T08:00:23;100313.06;;;6.30;81.21
80401;BME280;69727;53.132;8.230;2024-03-02T08:02:50;100317.97;;;6.42;81.46
80401;BME280;69727;53.132;8.230;2024-03-02T08:05:18;100313.00;;;6.53;80.85
80401;BME280;69727;53.132;8.230;2024-03-02T08:07:45;100311.16;;;6.54;80.82
80401;BME280;69727;53.132;8.230;2024-03-02T08:10:11;100310.63;;;6.58;81.03
80401;BME280;69727;53.132;8.230;2024-03-02T08:12:36;100310.81;;;6.72;80.91
80401;BME280;69727;53.132;8.230;2024-03-02T08:15:02;100317.53;;;6.82;80.53
80401;BME280;69727;53.132;8.230;2024-03-02T08:17:27;100328.47;;;6.87;79.74
80401;BME280;69727;53.132;8.230;2024-03-02T08:19:53;100327.78;;;6.93;79.94
80401;BME280;69727;53.132;8.230;2024-03-02T08:22:19;100329.03;;;6.97;79.56
80401;BME280;69727;53.132;8.230;2024-03-02T08:24:45;100333.28;;;7.06;78.99
80401;BME280;69727;53.132;8.230;2024-03-02T08:27:11;100330.53;;;7.15;78.88
80401;BME280;69727;53.132;8.230;2024-03-02T08:29:37;100329.56;;;7.22;78.78
80401;BME280;69727;53.132;8.230;2024-03-02T08:32:03;100329.47;;;7.30;78.41
80401;BME280;69727;53.132;8.230;2024-03-02T08:34:28;100331.59;;;7.35;78.20
80401;BME280;69727;53.132;8.230;2024-03-02T08:36:53;100329.53;;;7.37;77.96
80401;BME280;69727;53.132;8.230;2024-03-02T08:39:20;100331.09;;;7.46;77.98
80401;BME280;69727;53.132;8.230;2024-03-02T08:41:46;100330.50;;;7.65;77.02
80401;BME280;69727;53.132;8.230;2024-03-02T08:44:13;100335.91;;;7.72;76.44
80401;BME280;69727;53.132;8.230;2024-03-02T08:46:39;100339.47;;;7.79;76.03
80401;BME280;69727;53.132;8.230;2024-03-02T08:49:05;100339.53;;;7.85;75.97
80401;BME280;69727;53.132;8.230;2024-03-02T08:51:31;100345.66;;;8.01;75.34
80401;BME280;69727;53.132;8.230;2024-03-02T08:53:57;100338.53;;;8.08;75.21
80401;BME280;69727;53.132;8.230;2024-03-02T08:56:23;100348.34;;;8.22;74.87
80401;BME280;69727;53.132;8.230;2024-03-02T08:58:50;100348.22;;;8.30;73.76
80401;BME280;69727;53.132;8.230;2024-03-02T09:01:16;100357.66;;;8.47;73.74
80401;BME280;69727;53.132;8.230;2024-03-02T09:03:42;100345.81;;;8.63;73.04
80401;BME280;69727;53.132;8.230;2024-03-02T09:06:11;100347.34;;;8.72;72.48
80401;BME280;69727;53.132;8.230;2024-03-02T09:08:37;100359.16;;;8.84;70.40
80401;BME280;69727;53.132;8.230;2024-03-02T09:11:04;100359.63;;;8.94;70.78
80401;BME280;69727;53.132;8.230;2024-03-02T09:13:31;100365.06;;;9.07;69.98
80401;BME280;69727;53.132;8.230;2024-03-02T09:15:56;100358.97;;;9.20;69.54
80401;BME280;69727;53.132;8.230;2024-03-02T09:18:22;100364.00;;;9.36;69.18
80401;BME280;69727;53.132;8.230;2024-03-02T09:20:47;100363.84;;;9.51;67.93
80401;BME280;69727;53.132;8.230;2024-03-02T09:23:13;100361.03;;;9.66;68.63
80401;BME280;69727;53.132;8.230;2024-03-02T09:25:38;100358.19;;;9.74;67.86
80401;BME280;69727;53.132;8.230;2024-03-02T09:28:04;100362.28;;;9.76;66.40
80401;BME280;69727;53.132;8.230;2024-03-02T09:30:29;100366.25;;;9.87;66.15
80401;BME280;69727;53.132;8.230;2024-03-02T09:32:54;100362.56;;;10.01;66.17
80401;BME280;69727;53.132;8.230;2024-03-02T09:35:20;100363.59;;;10.07;66.28
80401;BME280;69727;53.132;8.230;2024-03-02T09:37:45;100369.63;;;10.15;66.01
80401;BME280;69727;53.132;8.230;2024-03-02T09:40:12;100364.06;;;10.17;64.92
80401;BME280;69727;53.132;8.230;2024-03-02T09:42:38;100362.00;;;10.26;64.80
80401;BME280;69727;53.132;8.230;2024-03-02T09:45:05;100363.66;;;10.40;64.07
80401;BME280;69727;53.132;8.230;2024-03-02T09:47:30;100363.06;;;10.51;64.17
80401;BME280;69727;53.132;8.230;2024-03-02T09:49:56;100369.28;;;10.58;63.13
80401;BME280;69727;53.132;8.230;2024-03-02T09:52:22;100371.72;;;10.73;63.48
80401;BME280;69727;53.132;8.230;2024-03-02T09:54:48;100371.47;;;10.94;62.64
80401;BME280;69727;53.132;8.230;2024-03-02T09:57:14;100361.97;;;11.11;61.79
80401;BME280;69727;53.132;8.230;2024-03-02T09:59:39;100358.59;;;11.29;62.22
80401;BME280;69727;53.132;8.230;2024-03-02T10:02:05;100350.88;;;11.46;60.22
80401;BME280;69727;53.132;8.230;2024-03-02T10:04:32;100357.41;;;11.69;59.80
80401;BME280;69727;53.132;8.230;2024-03-02T10:09:39;100351.88;;;12.02;58.07
80401;BME280;69727;53.132;8.230;2024-03-02T10:12:06;100349.22;;;12.27;57.26
80401;BME280;69727;53.132;8.230;2024-03-02T10:14:32;100344.22;;;12.55;56.29
80401;BME280;69727;53.132;8.230;2024-03-02T10:17:06;100346.28;;;12.60;55.31
80401;BME280;69727;53.132;8.230;2024-03-02T10:19:32;100352.78;;;12.71;55.34
80401;BME280;69727;53.132;8.230;2024-03-02T10:22:02;100351.47;;;12.55;54.72
80401;BME280;69727;53.132;8.230;2024-03-02T10:24:35;100355.38;;;12.59;55.52
80401;BME280;69727;53.132;8.230;2024-03-02T10:27:06;100350.66;;;12.97;54.33
80401;BME280;69727;53.132;8.230;2024-03-02T10:29:32;100349.69;;;12.92;54.12
80401;BME280;69727;53.132;8.230;2024-03-02T10:31:57;100349.00;;;12.78;53.87
80401;BME280;69727;53.132;8.230;2024-03-02T10:34:24;100351.66;;;12.60;54.34
80401;BME280;69727;53.132;8.230;2024-03-02T10:36:49;100360.31;;;12.62;54.58
80401;BME280;69727;53.132;8.230;2024-03-02T10:39:15;100356.50;;;12.51;54.73
80401;BME280;69727;53.132;8.230;2024-03-02T10:41:40;100357.34;;;12.70;54.38
80401;BME280;69727;53.132;8.230;2024-03-02T10:44:08;100348.69;;;12.68;53.57
80401;BME280;69727;53.132;8.230;2024-03-02T10:46:35;100351.06;;;12.76;53.58
80401;BME280;69727;53.132;8.230;2024-03-02T10:49:03;100358.38;;;12.94;53.42
80401;BME280;69727;53.132;8.230;2024-03-02T10:51:31;100352.72;;;13.02;53.20
80401;BME280;69727;53.132;8.230;2024-03-02T10:54:00;100359.97;;;13.02;52.29
80401;BME280;69727;53.132;8.230;2024-03-02T10:59:17;100345.78;;;13.13;52.04
80401;BME280;69727;53.132;8.230;2024-03-02T11:01:48;100345.13;;;13.11;52.20
80401;BME280;69727;53.132;8.230;2024-03-02T11:04:16;100337.69;;;13.13;52.48
80401;BME280;69727;53.132;8.230;2024-03-02T11:06:48;100330.09;;;13.58;52.11
80401;BME280;69727;53.132;8.230;2024-03-02T11:09:14;100328.59;;;13.92;50.81
80401;BME280;69727;53.132;8.230;2024-03-02T11:11:43;100337.44;;;13.99;50.11
80401;BME280;69727;53.132;8.230;2024-03-02T11:14:14;100330.34;;;14.28;49.10
80401;BME280;69727;53.132;8.230;2024-03-02T11:16:42;100334.41;;;14.48;48.86
80401;BME280;69727;53.132;8.230;2024-03-02T11:19:11;100341.56;;;14.66;48.40
80401;BME280;69727;53.132;8.230;2024-03-02T11:21:37;100340.75;;;14.89;47.98
80401;BME280;69727;53.132;8.230;2024-03-02T11:26:51;100359.53;;;15.07;46.66
80401;BME280;69727;53.132;8.230;2024-03-02T11:32:01;100346.00;;;15.30;46.47
80401;BME280;69727;53.132;8.230;2024-03-02T11:34:31;100341.88;;;15.40;46.53
80401;BME280;69727;53.132;8.230;2024-03-02T11:37:05;100344.09;;;15.54;45.87
80401;BME280;69727;53.132;8.230;2024-03-02T11:39:31;100350.97;;;15.74;45.52
80401;BME280;69727;53.132;8.230;2024-03-02T11:41:58;100350.81;;;15.80;45.68
80401;BME280;69727;53.132;8.230;2024-03-02T11:44:27;100343.00;;;15.67;45.65
80401;BME280;69727;53.132;8.230;2024-03-02T11:47:03;100341.53;;;16.04;44.56
80401;BME280;69727;53.132;8.230;2024-03-02T11:49:49;100348.53;;;16.17;45.02
80401;BME280;69727;53.132;8.230;2024-03-02T11:52:18;100343.97;;;16.51;43.71
80401;BME280;69727;53.132;8.230;2024-03-02T11:54:45;100343.09;;;16.79;43.57
80401;BME280;69727;53.132;8.230;2024-03-02T11:57:13;100346.50;;;16.41;43.76
80401;BME280;69727;53.132;8.230;2024-03-02T11:59:40;100345.59;;;16.19;45.38
80401;BME280;69727;53.132;8.230;2024-03-02T12:02:06;100339.53;;;16.45;43.96
80401;BME280;69727;53.132;8.230;2024-03-02T12:04:34;100350.53;;;16.38;44.66
80401;BME280;69727;53.132;8.230;2024-03-02T12:07:05;100346.75;;;16.39;43.35
80401;BME280;69727;53.132;8.230;2024-03-02T12:09:30;100342.72;;;16.42;43.26
80401;BME280;69727;53.132;8.230;2024-03-02T12:12:09;100322.81;;;16.81;43.33
80401;BME280;69727;53.132;8.230;2024-03-02T12:14:37;100332.59;;;17.04;42.18
80401;BME280;69727;53.132;8.230;2024-03-02T12:17:03;100335.13;;;16.72;42.52
80401;BME280;69727;53.132;8.230;2024-03-02T12:19:30;100333.09;;;17.01;41.85
80401;BME280;69727;53.132;8.230;2024-03-02T12:21:59;100324.97;;;17.01;41.67
80401;BME280;69727;53.132;8.230;2024-03-02T12:24:29;100334.63;;;17.14;41.37
80401;BME280;69727;53.132;8.230;2024-03-02T12:26:55;100329.09;;;17.47;41.68
80401;BME280;69727;53.132;8.230;2024-03-02T12:29:21;100335.94;;;17.11;41.58
80401;BME280;69727;53.132;8.230;2024-03-02T12:31:55;100335.59;;;17.03;42.52
80401;BME280;69727;53.132;8.230;2024-03-02T12:34:21;100332.94;;;17.30;42.67
80401;BME280;69727;53.132;8.230;2024-03-02T12:36:47;100331.50;;;17.44;41.07
80401;BME280;69727;53.132;8.230;2024-03-02T12:39:17;100329.16;;;17.52;40.60
80401;BME280;69727;53.132;8.230;2024-03-02T12:41:43;100331.28;;;17.07;41.25
80401;BME280;69727;53.132;8.230;2024-03-02T12:44:08;100338.66;;;17.11;41.15
80401;BME280;69727;53.132;8.230;2024-03-02T12:46:34;100329.19;;;17.31;40.98
80401;BME280;69727;53.132;8.230;2024-03-02T12:49:15;100332.69;;;17.53;40.29
80401;BME280;69727;53.132;8.230;2024-03-02T12:51:43;100325.78;;;17.62;39.88
80401;BME280;69727;53.132;8.230;2024-03-02T12:54:11;100318.50;;;17.24;40.84
80401;BME280;69727;53.132;8.230;2024-03-02T12:56:37;100321.72;;;17.21;41.32
80401;BME280;69727;53.132;8.230;2024-03-02T12:59:06;100326.94;;;17.49;40.95
80401;BME280;69727;53.132;8.230;2024-03-02T13:01:31;100321.81;;;17.53;40.83
80401;BME280;69727;53.132;8.230;2024-03-02T13:03:58;100321.44;;;17.01;41.62
80401;BME280;69727;53.132;8.230;2024-03-02T13:06:24;100311.78;;;17.32;42.09